sensor_id;sensor_type;location;lat;lon;timestamp;temperature;humidity
19385;DHT22;9828;54.122;17.974;2023-02-25T00:03:35;2.70;99.90
19385;DHT22;9828;54.122;17.974;2023-02-25T00:08:56;2.70;99.90
19385;DHT22;9828;54.122;17.974;2023-02-25T00:14:18;2.80;99.90
19385;DHT22;9828;54.122;17.974;2023-02-25T00:19:39;2.80;99.90
19385;DHT22;9828;54.122;17.974;2023-02-25T00:25:00;2.80;99.90
19385;DHT22;9828;54.122;17.974;2023-02-25T00:30:21;2.80;99.90
19385;DHT22;9828;54.122;17.974;2023-02-25T00:35:43;2.80;99.90
19385;DHT22;9828;54.122;17.974;2023-02-25T00:41:09;2.80;99.90
19385;DHT22;9828;54.122;17.974;2023-02-25T00:46:32;2.80;99.90
19385;DHT22;9828;54.122;17.974;2023-02-25T00:51:53;2.70;99.90
19385;DHT22;9828;54.122;17.974;2023-02-25T00:57:17;2.80;99.90
19385;DHT22;9828;54.122;17.974;2023-02-25T01:02:39;2.80;99.90
19385;DHT22;9828;54.122;17.974;2023-02-25T01:08:00;2.80;99.90
19385;DHT22;9828;54.122;17.974;2023-02-25T01:13:22;2.80;99.90
19385;DHT22;9828;54.122;17.974;2023-02-25T01:18:44;2.80;99.90
19385;DHT22;9828;54.122;17.974;2023-02-25T01:24:13;2.90;99.90
19385;DHT22;9828;54.122;17.974;2023-02-25T01:29:37;2.90;99.90
19385;DHT22;9828;54.122;17.974;2023-02-25T01:34:59;2.90;99.90
19385;DHT22;9828;54.122;17.974;2023-02-25T01:40:20;2.90;99.90
19385;DHT22;9828;54.122;17.974;2023-02-25T01:45:42;2.90;99.90
19385;DHT22;9828;54.122;17.974;2023-02-25T01:51:09;2.90;99.90
19385;DHT22;9828;54.122;17.974;2023-02-25T01:56:36;2.80;99.90
19385;DHT22;9828;54.122;17.974;2023-02-25T02:02:00;2.80;99.90
19385;DHT22;9828;54.122;17.974;2023-02-25T02:07:22;2.80;99.90
19385;DHT22;9828;54.122;17.974;2023-02-25T02:12:45;2.80;99.90
19385;DHT22;9828;54.122;17.974;2023-02-25T02:18:08;2.80;99.90
19385;DHT22;9828;54.122;17.974;2023-02-25T02:23:52;2.80;99.90
19385;DHT22;9828;54.122;17.974;2023-02-25T02:29:27;2.80;99.90
19385;DHT22;9828;54.122;17.974;2023-02-25T02:35:16;2.80;99.90
19385;DHT22;9828;54.122;17.974;2023-02-25T02:40:48;2.80;99.90
19385;DHT22;9828;54.122;17.974;2023-02-25T02:46:28;2.80;99.90
19385;DHT22;9828;54.122;17.974;2023-02-25T02:51:59;2.80;99.90
19385;DHT22;9828;54.122;17.974;2023-02-25T02:57:23;2.80;99.90
19385;DHT22;9828;54.122;17.974;2023-02-25T03:02:57;2.80;99.90
19385;DHT22;9828;54.122;17.974;2023-02-25T03:08:25;2.80;99.90
19385;DHT22;9828;54.122;17.974;2023-02-25T03:13:50;2.70;99.90
19385;DHT22;9828;54.122;17.974;2023-02-25T03:19:59;2.50;99.90
19385;DHT22;9828;54.122;17.974;2023-02-25T03:25:31;2.30;99.90
19385;DHT22;9828;54.122;17.974;2023-02-25T03:31:05;2.30;99.90
19385;DHT22;9828;54.122;17.974;2023-02-25T03:36:52;2.30;99.90
19385;DHT22;9828;54.122;17.974;2023-02-25T03:42:19;2.40;99.90
19385;DHT22;9828;54.122;17.974;2023-02-25T03:47:42;2.40;99.90
19385;DHT22;9828;54.122;17.974;2023-02-25T03:53:04;2.30;99.90
19385;DHT22;9828;54.122;17.974;2023-02-25T03:58:51;2.30;99.90
19385;DHT22;9828;54.122;17.974;2023-02-25T04:04:12;2.40;99.90
19385;DHT22;9828;54.122;17.974;2023-02-25T04:09:34;2.30;99.90
19385;DHT22;9828;54.122;17.974;2023-02-25T04:14:55;2.30;99.90
19385;DHT22;9828;54.122;17.974;2023-02-25T04:20:17;2.30;99.90
19385;DHT22;9828;54.122;17.974;2023-02-25T04:25:40;2.30;99.90
19385;DHT22;9828;54.122;17.974;2023-02-25T04:31:01;2.30;99.90
19385;DHT22;9828;54.122;17.974;2023-02-25T04:36:31;2.30;99.90
19385;DHT22;9828;54.122;17.974;2023-02-25T04:41:53;2.40;99.90
19385;DHT22;9828;54.122;17.974;2023-02-25T04:47:15;2.40;99.90
19385;DHT22;9828;54.122;17.974;2023-02-25T04:52:36;2.30;99.90
19385;DHT22;9828;54.122;17.974;2023-02-25T04:57:57;2.30;99.90
19385;DHT22;9828;54.122;17.974;2023-02-25T05:03:18;2.40;99.90
19385;DHT22;9828;54.122;17.974;2023-02-25T05:08:40;2.40;99.90
19385;DHT22;9828;54.122;17.974;2023-02-25T05:14:02;2.40;99.90
19385;DHT22;9828;54.122;17.974;2023-02-25T05:19:24;2.40;99.90
19385;DHT22;9828;54.122;17.974;2023-02-25T05:24:45;2.40;99.90
19385;DHT22;9828;54.122;17.974;2023-02-25T05:30:07;2.40;99.90
19385;DHT22;9828;54.122;17.974;2023-02-25T05:35:29;2.40;99.90
19385;DHT22;9828;54.122;17.974;2023-02-25T05:40:52;2.40;99.90
19385;DHT22;9828;54.122;17.974;2023-02-25T05:46:14;2.40;99.90
19385;DHT22;9828;54.122;17.974;2023-02-25T05:51:35;2.40;99.90
19385;DHT22;9828;54.122;17.974;2023-02-25T05:56:56;2.40;99.90
19385;DHT22;9828;54.122;17.974;2023-02-25T06:02:17;2.40;99.90
19385;DHT22;9828;54.122;17.974;2023-02-25T06:07:39;2.40;99.90
19385;DHT22;9828;54.122;17.974;2023-02-25T06:13:00;2.40;99.90
19385;DHT22;9828;54.122;17.974;2023-02-25T06:18:21;2.40;99.90
19385;DHT22;9828;54.122;17.974;2023-02-25T06:23:43;2.50;99.90
19385;DHT22;9828;54.122;17.974;2023-02-25T06:29:04;2.50;99.90
19385;DHT22;9828;54.122;17.974;2023-02-25T06:34:30;2.60;99.90
19385;DHT22;9828;54.122;17.974;2023-02-25T06:39:53;2.70;99.90
19385;DHT22;9828;54.122;17.974;2023-02-25T06:45:14;2.70;99.90
19385;DHT22;9828;54.122;17.974;2023-02-25T06:50:38;2.70;99.90
19385;DHT22;9828;54.122;17.974;2023-02-25T06:55:59;2.80;99.90
19385;DHT22;9828;54.122;17.974;2023-02-25T07:01:21;2.80;99.90
19385;DHT22;9828;54.122;17.974;2023-02-25T07:06:42;2.90;99.90
19385;DHT22;9828;54.122;17.974;2023-02-25T07:12:03;3.10;99.90
19385;DHT22;9828;54.122;17.974;2023-02-25T07:17:24;3.30;99.90
19385;DHT22;9828;54.122;17.974;2023-02-25T07:22:46;3.50;99.90
19385;DHT22;9828;54.122;17.974;2023-02-25T07:28:07;3.70;99.90
19385;DHT22;9828;54.122;17.974;2023-02-25T07:33:29;3.70;99.90
19385;DHT22;9828;54.122;17.974;2023-02-25T07:38:50;3.70;99.90
19385;DHT22;9828;54.122;17.974;2023-02-25T07:44:11;3.80;99.90
19385;DHT22;9828;54.122;17.974;2023-02-25T07:49:33;3.80;99.90
19385;DHT22;9828;54.122;17.974;2023-02-25T07:54:54;3.80;99.90
19385;DHT22;9828;54.122;17.974;2023-02-25T08:00:37;3.70;99.90
19385;DHT22;9828;54.122;17.974;2023-02-25T08:06:06;3.70;99.90
19385;DHT22;9828;54.122;17.974;2023-02-25T08:11:28;3.80;99.90
19385;DHT22;9828;54.122;17.974;2023-02-25T08:16:50;3.80;99.90
19385;DHT22;9828;54.122;17.974;2023-02-25T08:22:33;3.80;99.90
19385;DHT22;9828;54.122;17.974;2023-02-25T08:27:54;3.80;99.90
19385;DHT22;9828;54.122;17.974;2023-02-25T08:33:16;3.80;99.90
19385;DHT22;9828;54.122;17.974;2023-02-25T08:38:37;3.80;99.90
19385;DHT22;9828;54.122;17.974;2023-02-25T08:43:59;3.80;99.90
19385;DHT22;9828;54.122;17.974;2023-02-25T08:49:23;3.80;99.90
19385;DHT22;9828;54.122;17.974;2023-02-25T08:54:44;3.70;99.90
19385;DHT22;9828;54.122;17.974;2023-02-25T09:00:25;3.80;99.90
19385;DHT22;9828;54.122;17.974;2023-02-25T09:06:07;3.80;99.90
19385;DHT22;9828;54.122;17.974;2023-02-25T09:11:28;3.80;99.90
19385;DHT22;9828;54.122;17.974;2023-02-25T09:16:50;3.90;99.90
19385;DHT22;9828;54.122;17.974;2023-02-25T09:22:18;4.10;99.90
19385;DHT22;9828;54.122;17.974;2023-02-25T09:27:39;4.00;99.90
19385;DHT22;9828;54.122;17.974;2023-02-25T09:33:01;3.90;99.90
19385;DHT22;9828;54.122;17.974;2023-02-25T09:38:22;3.90;99.90
19385;DHT22;9828;54.122;17.974;2023-02-25T09:43:43;3.80;99.90
19385;DHT22;9828;54.122;17.974;2023-02-25T09:54:45;3.90;99.90
19385;DHT22;9828;54.122;17.974;2023-02-25T10:00:25;3.90;99.90
19385;DHT22;9828;54.122;17.974;2023-02-25T10:05:54;3.90;99.90
19385;DHT22;9828;54.122;17.974;2023-02-25T10:28:26;4.10;99.90
19385;DHT22;9828;54.122;17.974;2023-02-25T10:33:49;4.10;99.90
19385;DHT22;9828;54.122;17.974;2023-02-25T10:39:10;4.00;99.90
19385;DHT22;9828;54.122;17.974;2023-02-25T10:44:32;3.90;99.90
19385;DHT22;9828;54.122;17.974;2023-02-25T10:50:20;4.00;99.90
19385;DHT22;9828;54.122;17.974;2023-02-25T10:55:49;4.00;99.90
19385;DHT22;9828;54.122;17.974;2023-02-25T11:01:15;3.90;99.90
19385;DHT22;9828;54.122;17.974;2023-02-25T11:06:39;3.80;99.90
19385;DHT22;9828;54.122;17.974;2023-02-25T11:12:09;3.80;99.90
19385;DHT22;9828;54.122;17.974;2023-02-25T11:17:31;3.80;99.90
19385;DHT22;9828;54.122;17.974;2023-02-25T11:22:55;3.80;99.90
19385;DHT22;9828;54.122;17.974;2023-02-25T11:28:42;3.80;99.90
19385;DHT22;9828;54.122;17.974;2023-02-25T11:34:06;3.80;99.90
19385;DHT22;9828;54.122;17.974;2023-02-25T11:39:52;3.80;99.90
19385;DHT22;9828;54.122;17.974;2023-02-25T11:45:16;3.80;99.90
19385;DHT22;9828;54.122;17.974;2023-02-25T11:56:34;3.80;99.90
19385;DHT22;9828;54.122;17.974;2023-02-25T12:02:16;4.70;99.90
19385;DHT22;9828;54.122;17.974;2023-02-25T12:42:42;3.70;99.90
19385;DHT22;9828;54.122;17.974;2023-02-25T13:05:16;3.40;99.90
19385;DHT22;9828;54.122;17.974;2023-02-25T13:10:59;3.40;99.90
19385;DHT22;9828;54.122;17.974;2023-02-25T13:34:38;3.30;99.90
19385;DHT22;9828;54.122;17.974;2023-02-25T13:57:11;3.00;99.90
19385;DHT22;9828;54.122;17.974;2023-02-25T14:02:45;3.00;99.90
19385;DHT22;9828;54.122;17.974;2023-02-25T14:31:26;2.60;99.90
19385;DHT22;9828;54.122;17.974;2023-02-25T14:37:44;2.40;99.90
19385;DHT22;9828;54.122;17.974;2023-02-25T14:48:42;2.00;99.90
19385;DHT22;9828;54.122;17.974;2023-02-25T15:23:13;1.90;99.90
19385;DHT22;9828;54.122;17.974;2023-02-25T15:28:38;2.00;99.90
19385;DHT22;9828;54.122;17.974;2023-02-25T16:01:39;1.60;99.90
19385;DHT22;9828;54.122;17.974;2023-02-25T16:07:05;1.50;99.90
19385;DHT22;9828;54.122;17.974;2023-02-25T16:12:41;1.50;99.90
19385;DHT22;9828;54.122;17.974;2023-02-25T16:23:38;1.30;99.90
19385;DHT22;9828;54.122;17.974;2023-02-25T16:29:36;1.30;99.90
19385;DHT22;9828;54.122;17.974;2023-02-25T16:35:20;1.10;99.90
19385;DHT22;9828;54.122;17.974;2023-02-25T16:40:44;1.00;99.90
19385;DHT22;9828;54.122;17.974;2023-02-25T16:46:31;1.10;99.90
19385;DHT22;9828;54.122;17.974;2023-02-25T16:51:52;1.00;99.90
19385;DHT22;9828;54.122;17.974;2023-02-25T16:57:20;1.00;99.90
19385;DHT22;9828;54.122;17.974;2023-02-25T17:02:45;1.00;99.90
19385;DHT22;9828;54.122;17.974;2023-02-25T17:08:16;1.00;99.90
19385;DHT22;9828;54.122;17.974;2023-02-25T17:13:40;1.00;99.90
19385;DHT22;9828;54.122;17.974;2023-02-25T17:19:07;1.00;99.90
19385;DHT22;9828;54.122;17.974;2023-02-25T17:24:31;1.00;99.90
19385;DHT22;9828;54.122;17.974;2023-02-25T17:29:53;0.90;99.90
19385;DHT22;9828;54.122;17.974;2023-02-25T17:35:15;0.80;99.90
19385;DHT22;9828;54.122;17.974;2023-02-25T17:40:36;0.80;99.90
19385;DHT22;9828;54.122;17.974;2023-02-25T17:46:12;0.80;99.90
19385;DHT22;9828;54.122;17.974;2023-02-25T17:51:37;0.80;99.90
19385;DHT22;9828;54.122;17.974;2023-02-25T17:56:59;0.80;99.90
19385;DHT22;9828;54.122;17.974;2023-02-25T18:02:41;0.80;99.90
19385;DHT22;9828;54.122;17.974;2023-02-25T18:08:21;0.80;99.90
19385;DHT22;9828;54.122;17.974;2023-02-25T18:13:43;0.80;99.90
19385;DHT22;9828;54.122;17.974;2023-02-25T18:19:13;0.90;99.90
19385;DHT22;9828;54.122;17.974;2023-02-25T18:24:38;0.90;99.90
19385;DHT22;9828;54.122;17.974;2023-02-25T18:30:20;0.90;99.90
19385;DHT22;9828;54.122;17.974;2023-02-25T18:35:45;0.80;99.90
19385;DHT22;9828;54.122;17.974;2023-02-25T18:41:07;0.70;99.90
19385;DHT22;9828;54.122;17.974;2023-02-25T18:46:29;0.70;99.90
19385;DHT22;9828;54.122;17.974;2023-02-25T18:52:01;0.60;99.90
19385;DHT22;9828;54.122;17.974;2023-02-25T18:57:25;0.50;99.90
19385;DHT22;9828;54.122;17.974;2023-02-25T19:02:48;0.50;99.90
19385;DHT22;9828;54.122;17.974;2023-02-25T19:08:12;0.50;99.90
19385;DHT22;9828;54.122;17.974;2023-02-25T19:13:36;0.60;99.90
19385;DHT22;9828;54.122;17.974;2023-02-25T19:18:59;0.60;99.90
19385;DHT22;9828;54.122;17.974;2023-02-25T19:24:20;0.60;99.90
19385;DHT22;9828;54.122;17.974;2023-02-25T19:29:42;0.60;99.90
19385;DHT22;9828;54.122;17.974;2023-02-25T19:35:04;0.60;99.90
19385;DHT22;9828;54.122;17.974;2023-02-25T19:40:26;0.60;99.90
19385;DHT22;9828;54.122;17.974;2023-02-25T19:45:48;0.60;99.90
19385;DHT22;9828;54.122;17.974;2023-02-25T19:51:11;0.50;99.90
19385;DHT22;9828;54.122;17.974;2023-02-25T19:56:33;0.50;99.90
19385;DHT22;9828;54.122;17.974;2023-02-25T20:01:55;0.50;99.90
19385;DHT22;9828;54.122;17.974;2023-02-25T20:07:17;0.40;99.90
19385;DHT22;9828;54.122;17.974;2023-02-25T20:12:40;0.40;99.90
19385;DHT22;9828;54.122;17.974;2023-02-25T20:18:01;0.50;99.90
19385;DHT22;9828;54.122;17.974;2023-02-25T20:23:22;0.50;99.90
19385;DHT22;9828;54.122;17.974;2023-02-25T20:28:44;0.40;99.90
19385;DHT22;9828;54.122;17.974;2023-02-25T20:34:08;0.40;99.90
19385;DHT22;9828;54.122;17.974;2023-02-25T20:44:58;0.30;99.90
19385;DHT22;9828;54.122;17.974;2023-02-25T20:50:24;0.20;99.90
19385;DHT22;9828;54.122;17.974;2023-02-25T20:55:47;0.20;99.90
19385;DHT22;9828;54.122;17.974;2023-02-25T21:01:08;0.10;99.90
19385;DHT22;9828;54.122;17.974;2023-02-25T21:06:29;0.10;99.90
19385;DHT22;9828;54.122;17.974;2023-02-25T21:11:50;0.20;99.90
19385;DHT22;9828;54.122;17.974;2023-02-25T21:17:12;0.00;99.90
19385;DHT22;9828;54.122;17.974;2023-02-25T21:22:34;-0.10;99.90
19385;DHT22;9828;54.122;17.974;2023-02-25T21:27:54;0.00;99.90
19385;DHT22;9828;54.122;17.974;2023-02-25T21:33:17;0.10;99.90
19385;DHT22;9828;54.122;17.974;2023-02-25T21:38:38;0.10;99.90
19385;DHT22;9828;54.122;17.974;2023-02-25T21:44:00;0.00;99.90
19385;DHT22;9828;54.122;17.974;2023-02-25T21:49:21;0.00;99.90
19385;DHT22;9828;54.122;17.974;2023-02-25T21:54:42;0.00;99.90
19385;DHT22;9828;54.122;17.974;2023-02-25T22:00:04;-0.10;99.90
19385;DHT22;9828;54.122;17.974;2023-02-25T22:05:32;0.00;99.90
19385;DHT22;9828;54.122;17.974;2023-02-25T22:10:53;0.10;99.90
19385;DHT22;9828;54.122;17.974;2023-02-25T22:16:16;0.10;99.90
19385;DHT22;9828;54.122;17.974;2023-02-25T22:21:37;0.10;99.90
19385;DHT22;9828;54.122;17.974;2023-02-25T22:26:59;0.00;99.90
19385;DHT22;9828;54.122;17.974;2023-02-25T22:32:20;0.00;99.90
19385;DHT22;9828;54.122;17.974;2023-02-25T22:37:41;-0.20;99.90
19385;DHT22;9828;54.122;17.974;2023-02-25T22:43:02;-0.30;99.90
19385;DHT22;9828;54.122;17.974;2023-02-25T22:48:24;-0.10;99.90
19385;DHT22;9828;54.122;17.974;2023-02-25T22:53:45;0.00;99.90
19385;DHT22;9828;54.122;17.974;2023-02-25T22:59:07;0.00;99.90
19385;DHT22;9828;54.122;17.974;2023-02-25T23:04:28;0.00;99.90
19385;DHT22;9828;54.122;17.974;2023-02-25T23:09:49;-0.10;99.90
19385;DHT22;9828;54.122;17.974;2023-02-25T23:15:10;-0.20;99.90
19385;DHT22;9828;54.122;17.974;2023-02-25T23:20:34;-0.20;99.90
19385;DHT22;9828;54.122;17.974;2023-02-25T23:25:55;-0.30;99.90
19385;DHT22;9828;54.122;17.974;2023-02-25T23:31:23;-0.20;99.90
19385;DHT22;9828;54.122;17.974;2023-02-25T23:36:44;-0.10;99.90
19385;DHT22;9828;54.122;17.974;2023-02-25T23:42:06;-0.20;99.90
19385;DHT22;9828;54.122;17.974;2023-02-25T23:47:29;-0.20;99.90
19385;DHT22;9828;54.122;17.974;2023-02-25T23:52:50;-0.20;99.90
19385;DHT22;9828;54.122;17.974;2023-02-25T23:58:11;-0.20;99.90
